| time (UTC) | temp F | wind direction | speed MPH | gust MPH | rain 1hr in | rain 24hr in | rain mn in | humidity % | barometer mb |
| 20260508035801 | 43 | 227 | 0.0 | 0.0 | 0.00 | 0.00 | 0.00 | 69 | 1008.4 |
| 20260508035259 | 43 | 227 | 0.0 | 0.0 | 0.00 | 0.00 | 0.00 | 68 | 1008.3 |
| 20260508034814 | 44 | 227 | 0.0 | 0.0 | 0.00 | 0.00 | 0.00 | 68 | 1008.3 |
| 20260508034309 | 44 | 227 | 0.0 | 0.0 | 0.00 | 0.00 | 0.00 | 67 | 1008.3 |
| 20260508033835 | 44 | 227 | 0.0 | 0.0 | 0.00 | 0.00 | 0.00 | 67 | 1008.3 |
| 20260508033302 | 44 | 227 | 0.0 | 0.0 | 0.00 | 0.00 | 0.00 | 67 | 1008.3 |
| 20260508032756 | 44 | 227 | 0.0 | 0.0 | 0.00 | 0.00 | 0.00 | 66 | 1008.3 |
| 20260508032314 | 45 | 227 | 0.0 | 0.0 | 0.00 | 0.00 | 0.00 | 65 | 1008.2 |
| 20260508031810 | 45 | 227 | 0.0 | 0.0 | 0.00 | 0.00 | 0.00 | 65 | 1008.2 |
| 20260508031302 | 45 | 227 | 0.0 | 0.0 | 0.00 | 0.00 | 0.00 | 65 | 1008.2 |
| 20260508030758 | 45 | 227 | 0.0 | 0.0 | 0.00 | 0.00 | 0.00 | 64 | 1008.1 |
| 20260508030303 | 46 | 227 | 0.0 | 0.0 | 0.00 | 0.00 | 0.00 | 63 | 1008.1 |
| 20260508025757 | 46 | 227 | 0.0 | 0.0 | 0.00 | 0.00 | 0.00 | 62 | 1008.1 |
| 20260508025310 | 46 | 227 | 0.0 | 0.0 | 0.00 | 0.00 | 0.00 | 60 | 1008.2 |
| 20260508024804 | 47 | 227 | 0.0 | 0.0 | 0.00 | 0.00 | 0.00 | 60 | 1008.2 |
| 20260508024259 | 47 | 227 | 0.0 | 0.0 | 0.00 | 0.00 | 0.00 | 59 | 1008.2 |
| 20260508023818 | 47 | 227 | 0.0 | 0.0 | 0.00 | 0.00 | 0.00 | 59 | 1008.2 |
| 20260508023259 | 47 | 227 | 0.0 | 0.0 | 0.00 | 0.00 | 0.00 | 59 | 1008.2 |
| 20260508022802 | 48 | 227 | 0.0 | 0.0 | 0.00 | 0.00 | 0.00 | 58 | 1008.2 |
| 20260508022256 | 48 | 227 | 0.0 | 0.0 | 0.00 | 0.00 | 0.00 | 57 | 1008.2 |
| 20260508021809 | 48 | 227 | 0.0 | 0.0 | 0.00 | 0.00 | 0.00 | 58 | 1008.2 |
| 20260508021305 | 49 | 227 | 0.0 | 0.0 | 0.00 | 0.00 | 0.00 | 56 | 1008.2 |
| 20260508020803 | 49 | 227 | 0.0 | 0.0 | 0.00 | 0.00 | 0.00 | 55 | 1008.1 |
| 20260508020301 | 49 | 227 | 0.0 | 0.0 | 0.00 | 0.00 | 0.00 | 53 | 1008.1 |
| 20260508015756 | 50 | 227 | 0.0 | 0.0 | 0.00 | 0.00 | 0.00 | 53 | 1008.1 |
| 20260508015311 | 50 | 227 | 0.0 | 0.0 | 0.00 | 0.00 | 0.00 | 51 | 1008.1 |
| 20260508014754 | 50 | 227 | 0.0 | 0.0 | 0.00 | 0.00 | 0.00 | 50 | 1008.1 |
| 20260508014308 | 50 | 227 | 0.0 | 0.0 | 0.00 | 0.00 | 0.00 | 49 | 1008.1 |
| 20260508013805 | 51 | 227 | 0.0 | 0.0 | 0.00 | 0.00 | 0.00 | 49 | 1007.9 |
| 20260508013258 | 51 | 227 | 0.0 | 0.0 | 0.00 | 0.00 | 0.00 | 48 | 1007.9 |
| 20260508012814 | 51 | 227 | 0.0 | 0.0 | 0.00 | 0.00 | 0.00 | 47 | 1007.9 |
| 20260508012314 | 52 | 227 | 0.0 | 0.0 | 0.00 | 0.00 | 0.00 | 47 | 1007.8 |
| 20260508011802 | 52 | 226 | 0.0 | 0.0 | 0.00 | 0.00 | 0.00 | 45 | 1007.8 |
| 20260508011257 | 52 | 227 | 0.0 | 0.0 | 0.00 | 0.00 | 0.00 | 44 | 1007.8 |
| 20260508010807 | 53 | 227 | 0.0 | 0.0 | 0.00 | 0.00 | 0.00 | 43 | 1007.5 |
| 20260508010259 | 53 | 227 | 0.0 | 0.0 | 0.00 | 0.00 | 0.00 | 43 | 1007.5 |
| 20260508005812 | 53 | 226 | 0.0 | 0.0 | 0.00 | 0.06 | 0.00 | 43 | 1007.5 |
| 20260508005306 | 53 | 226 | 0.0 | 0.0 | 0.00 | 0.06 | 0.00 | 43 | 1007.4 |
| 20260508004758 | 54 | 360 | 0.0 | 0.0 | 0.00 | 0.06 | 0.00 | 42 | 1007.4 |
| 20260508004311 | 54 | 360 | 0.0 | 0.0 | 0.00 | 0.06 | 0.00 | 42 | 1007.4 |
| 20260508003833 | 54 | 360 | 0.0 | 0.0 | 0.00 | 0.06 | 0.00 | 41 | 1007.3 |
| 20260508003325 | 54 | 360 | 0.0 | 2.0 | 0.00 | 0.06 | 0.00 | 41 | 1007.3 |
| 20260508002809 | 54 | 360 | 1.0 | 5.0 | 0.00 | 0.06 | 0.00 | 40 | 1007.3 |
| 20260508002323 | 54 | 360 | 1.0 | 5.0 | 0.00 | 0.06 | 0.00 | 40 | 1007.1 |
| 20260508001815 | 54 | 360 | 0.0 | 3.0 | 0.00 | 0.06 | 0.00 | 41 | 1007.1 |
| 20260508001309 | 55 | 360 | 1.0 | 3.0 | 0.00 | 0.06 | 0.00 | 40 | 1007.1 |
| 20260508000809 | 55 | 360 | 0.0 | 1.0 | 0.00 | 0.06 | 0.00 | 42 | 1007.0 |
| 20260508000302 | 55 | 360 | 0.0 | 1.0 | 0.00 | 0.06 | 0.00 | 40 | 1007.0 |
| 20260507235814 | 55 | 360 | 0.0 | 3.0 | 0.00 | 0.06 | 0.00 | 40 | 1007.0 |
| 20260507235307 | 55 | 360 | 1.0 | 3.0 | 0.00 | 0.06 | 0.00 | 41 | 1006.8 |
| 20260507234802 | 56 | 360 | 0.0 | 2.0 | 0.00 | 0.06 | 0.00 | 41 | 1006.8 |
| 20260507234300 | 56 | 360 | 0.0 | 2.0 | 0.00 | 0.06 | 0.00 | 40 | 1006.8 |
| 20260507233800 | 56 | 360 | 0.0 | 2.0 | 0.00 | 0.06 | 0.00 | 40 | 1006.7 |
| 20260507233259 | 56 | 360 | 0.0 | 2.0 | 0.00 | 0.06 | 0.00 | 39 | 1006.7 |
| 20260507232817 | 56 | 360 | 1.0 | 3.0 | 0.00 | 0.06 | 0.00 | 38 | 1006.7 |
| 20260507232311 | 56 | 360 | 1.0 | 3.0 | 0.00 | 0.06 | 0.00 | 38 | 1006.4 |
| 20260507231812 | 56 | 360 | 1.0 | 3.0 | 0.00 | 0.06 | 0.00 | 38 | 1006.4 |
| 20260507231308 | 57 | 360 | 1.0 | 4.0 | 0.00 | 0.06 | 0.00 | 37 | 1006.4 |
| 20260507230823 | 57 | 360 | 1.0 | 4.0 | 0.00 | 0.06 | 0.00 | 37 | 1006.6 |
| 20260507230311 | 57 | 360 | 0.0 | 4.0 | 0.00 | 0.06 | 0.00 | 38 | 1006.6 |
| 20260507225813 | 57 | 360 | 0.0 | 6.0 | 0.00 | 0.06 | 0.00 | 37 | 1006.6 |
| 20260507225332 | 57 | 360 | 2.0 | 6.0 | 0.00 | 0.06 | 0.00 | 36 | 1006.7 |
| 20260507224809 | 58 | 360 | 0.0 | 5.0 | 0.00 | 0.06 | 0.00 | 36 | 1006.7 |
| 20260507224302 | 58 | 360 | 3.0 | 7.0 | 0.00 | 0.06 | 0.00 | 35 | 1006.7 |
| 20260507223758 | 58 | 360 | 3.0 | 7.0 | 0.00 | 0.06 | 0.00 | 35 | 1006.5 |
| 20260507223253 | 58 | 360 | 2.0 | 5.0 | 0.00 | 0.06 | 0.00 | 35 | 1006.5 |
| 20260507222808 | 59 | 360 | 2.0 | 5.0 | 0.00 | 0.06 | 0.00 | 35 | 1006.5 |
| 20260507222306 | 59 | 360 | 1.0 | 5.0 | 0.00 | 0.06 | 0.00 | 35 | 1006.3 |
| 20260507221801 | 59 | 360 | 2.0 | 5.0 | 0.00 | 0.06 | 0.00 | 35 | 1006.3 |
| 20260507221311 | 59 | 360 | 1.0 | 3.0 | 0.00 | 0.06 | 0.00 | 34 | 1006.3 |
| 20260507220802 | 60 | 360 | 2.0 | 3.0 | 0.00 | 0.06 | 0.00 | 34 | 1006.3 |
| 20260507220335 | 60 | 360 | 0.0 | 3.0 | 0.00 | 0.06 | 0.00 | 35 | 1006.3 |
| 20260507215807 | 60 | 360 | 1.0 | 5.0 | 0.00 | 0.06 | 0.00 | 34 | 1006.3 |
| 20260507215307 | 61 | 360 | 2.0 | 5.0 | 0.00 | 0.06 | 0.00 | 33 | 1006.3 |
| 20260507214801 | 61 | 360 | 1.0 | 5.0 | 0.00 | 0.06 | 0.00 | 34 | 1006.3 |
| 20260507214303 | 61 | 360 | 2.0 | 6.0 | 0.00 | 0.06 | 0.00 | 33 | 1006.3 |
| 20260507213759 | 61 | 360 | 2.0 | 6.0 | 0.00 | 0.06 | 0.00 | 33 | 1006.2 |
| 20260507213253 | 61 | 360 | 2.0 | 6.0 | 0.00 | 0.06 | 0.00 | 33 | 1006.2 |
| 20260507212827 | 61 | 360 | 2.0 | 4.0 | 0.00 | 0.06 | 0.00 | 33 | 1006.2 |
| 20260507212300 | 61 | 360 | 1.0 | 5.0 | 0.00 | 0.06 | 0.00 | 34 | 1006.3 |
| 20260507211755 | 61 | 360 | 1.0 | 5.0 | 0.00 | 0.06 | 0.00 | 33 | 1006.3 |
| 20260507211256 | 61 | 360 | 2.0 | 6.0 | 0.00 | 0.06 | 0.00 | 32 | 1006.3 |
| 20260507210756 | 61 | 360 | 2.0 | 6.0 | 0.00 | 0.06 | 0.00 | 33 | 1006.1 |
| 20260507210307 | 61 | 360 | 2.0 | 6.0 | 0.00 | 0.06 | 0.00 | 34 | 1006.1 |
| 20260507205805 | 61 | 360 | 2.0 | 7.0 | 0.00 | 0.07 | 0.00 | 34 | 1006.1 |
| 20260507205257 | 62 | 360 | 2.0 | 7.0 | 0.00 | 0.07 | 0.00 | 34 | 1006.2 |
| 20260507204818 | 62 | 360 | 3.0 | 9.0 | 0.00 | 0.07 | 0.00 | 33 | 1006.2 |
| 20260507204307 | 62 | 360 | 3.0 | 9.0 | 0.00 | 0.07 | 0.00 | 34 | 1006.2 |
| 20260507203820 | 62 | 360 | 1.0 | 8.0 | 0.00 | 0.07 | 0.00 | 35 | 1006.2 |
| 20260507203258 | 62 | 360 | 2.0 | 4.0 | 0.00 | 0.07 | 0.00 | 34 | 1006.2 |
| 20260507202835 | 62 | 360 | 2.0 | 6.0 | 0.00 | 0.07 | 0.00 | 33 | 1006.2 |
| 20260507202307 | 62 | 360 | 2.0 | 7.0 | 0.00 | 0.07 | 0.00 | 34 | 1006.2 |
| 20260507201800 | 62 | 360 | 1.0 | 7.0 | 0.00 | 0.07 | 0.00 | 34 | 1006.2 |
| 20260507201300 | 62 | 360 | 2.0 | 3.0 | 0.00 | 0.07 | 0.00 | 35 | 1006.2 |
| 20260507200811 | 62 | 360 | 1.0 | 4.0 | 0.00 | 0.07 | 0.00 | 36 | 1006.2 |
| 20260507200313 | 61 | 360 | 1.0 | 4.0 | 0.00 | 0.07 | 0.00 | 37 | 1006.2 |
| 20260507195804 | 61 | 360 | 1.0 | 5.0 | 0.00 | 0.08 | 0.00 | 35 | 1006.2 |
| 20260507195259 | 62 | 360 | 1.0 | 6.0 | 0.00 | 0.08 | 0.00 | 33 | 1006.3 |
| 20260507194801 | 62 | 360 | 3.0 | 6.0 | 0.00 | 0.08 | 0.00 | 33 | 1006.3 |
| 20260507194255 | 63 | 360 | 2.0 | 5.0 | 0.00 | 0.08 | 0.00 | 33 | 1006.3 |
| 20260507193813 | 63 | 360 | 2.0 | 5.0 | 0.00 | 0.08 | 0.00 | 33 | 1006.3 |
| 20260507193307 | 64 | 341 | 2.0 | 4.0 | 0.00 | 0.08 | 0.00 | 33 | 1006.3 |
| 20260507192823 | 64 | 57 | 3.0 | 5.0 | 0.00 | 0.08 | 0.00 | 33 | 1006.3 |
| 20260507192258 | 64 | 70 | 3.0 | 7.0 | 0.00 | 0.08 | 0.00 | 33 | 1006.4 |
| 20260507191806 | 64 | 15 | 2.0 | 8.0 | 0.00 | 0.08 | 0.00 | 36 | 1006.4 |
| 20260507191300 | 64 | 250 | 4.0 | 8.0 | 0.00 | 0.08 | 0.00 | 33 | 1006.4 |
| 20260507190832 | 64 | 256 | 2.0 | 9.0 | 0.00 | 0.08 | 0.00 | 33 | 1006.5 |
| 20260507190259 | 63 | 350 | 1.0 | 9.0 | 0.00 | 0.08 | 0.00 | 37 | 1006.5 |
| 20260507185814 | 62 | 231 | 2.0 | 8.0 | 0.00 | 0.11 | 0.00 | 36 | 1006.5 |
| 20260507185306 | 62 | 360 | 3.0 | 5.0 | 0.00 | 0.11 | 0.00 | 36 | 1006.8 |
| 20260507184804 | 62 | 360 | 1.0 | 4.0 | 0.00 | 0.11 | 0.00 | 34 | 1006.8 |
| 20260507184318 | 62 | 360 | 3.0 | 9.0 | 0.00 | 0.11 | 0.00 | 33 | 1006.8 |
| 20260507183809 | 62 | 360 | 3.0 | 8.0 | 0.00 | 0.11 | 0.00 | 39 | 1006.8 |
| 20260507183302 | 61 | 360 | 2.0 | 4.0 | 0.00 | 0.11 | 0.00 | 35 | 1006.8 |
| 20260507182817 | 61 | 360 | 1.0 | 6.0 | 0.00 | 0.11 | 0.00 | 35 | 1006.8 |
| 20260507182258 | 61 | 360 | 1.0 | 6.0 | 0.00 | 0.11 | 0.00 | 37 | 1007.3 |
| 20260507181812 | 61 | 360 | 1.0 | 4.0 | 0.00 | 0.11 | 0.00 | 37 | 1007.3 |
| 20260507181309 | 61 | 360 | 1.0 | 4.0 | 0.00 | 0.11 | 0.00 | 36 | 1007.3 |
| 20260507180806 | 60 | 360 | 1.0 | 4.0 | 0.00 | 0.11 | 0.00 | 40 | 1007.1 |
| 20260507180255 | 60 | 360 | 2.0 | 4.0 | 0.00 | 0.11 | 0.00 | 36 | 1007.1 |
| 20260507175758 | 60 | 360 | 2.0 | 3.0 | 0.00 | 0.18 | 0.00 | 36 | 1007.1 |
| 20260507175312 | 61 | 360 | 1.0 | 6.0 | 0.00 | 0.18 | 0.00 | 37 | 1007.1 |
| 20260507174803 | 61 | 360 | 2.0 | 6.0 | 0.00 | 0.18 | 0.00 | 36 | 1007.1 |
| 20260507174301 | 61 | 360 | 1.0 | 5.0 | 0.00 | 0.18 | 0.00 | 38 | 1007.1 |
| 20260507173819 | 61 | 360 | 1.0 | 5.0 | 0.00 | 0.18 | 0.00 | 37 | 1007.3 |
| 20260507173312 | 61 | 360 | 2.0 | 4.0 | 0.00 | 0.18 | 0.00 | 36 | 1007.3 |
| 20260507172811 | 61 | 360 | 2.0 | 5.0 | 0.00 | 0.18 | 0.00 | 34 | 1007.3 |
| 20260507172308 | 62 | 360 | 2.0 | 11.0 | 0.00 | 0.18 | 0.00 | 37 | 1007.2 |
| 20260507171807 | 62 | 360 | 3.0 | 11.0 | 0.00 | 0.18 | 0.00 | 37 | 1007.2 |
| 20260507171320 | 62 | 360 | 1.0 | 6.0 | 0.00 | 0.18 | 0.00 | 37 | 1007.2 |
| 20260507170757 | 62 | 360 | 2.0 | 6.0 | 0.00 | 0.18 | 0.00 | 39 | 1007.3 |
| 20260507170303 | 62 | 360 | 2.0 | 6.0 | 0.00 | 0.18 | 0.00 | 36 | 1007.3 |
| 20260507165753 | 62 | 360 | 2.0 | 5.0 | 0.00 | 0.18 | 0.00 | 38 | 1007.3 |
| 20260507165314 | 61 | 360 | 2.0 | 8.0 | 0.00 | 0.18 | 0.00 | 38 | 1007.5 |
| 20260507164806 | 61 | 360 | 3.0 | 6.0 | 0.00 | 0.18 | 0.00 | 38 | 1007.5 |
| 20260507164302 | 61 | 360 | 2.0 | 4.0 | 0.00 | 0.18 | 0.00 | 38 | 1007.5 |
| 20260507163826 | 60 | 360 | 1.0 | 4.0 | 0.00 | 0.18 | 0.00 | 41 | 1007.8 |
| 20260507163259 | 60 | 360 | 2.0 | 8.0 | 0.00 | 0.18 | 0.00 | 39 | 1007.8 |
| 20260507162811 | 60 | 360 | 3.0 | 6.0 | 0.00 | 0.18 | 0.00 | 39 | 1007.8 |
| 20260507162310 | 60 | 360 | 1.0 | 3.0 | 0.00 | 0.18 | 0.00 | 39 | 1007.9 |
| 20260507161807 | 60 | 360 | 1.0 | 5.0 | 0.00 | 0.18 | 0.00 | 41 | 1007.9 |
| 20260507161302 | 60 | 360 | 2.0 | 5.0 | 0.00 | 0.18 | 0.00 | 39 | 1007.9 |
| 20260507160759 | 60 | 360 | 2.0 | 5.0 | 0.00 | 0.18 | 0.00 | 38 | 1008.0 |
| 20260507160307 | 60 | 360 | 2.0 | 5.0 | 0.00 | 0.18 | 0.00 | 40 | 1008.0 |
| 20260507155805 | 60 | 360 | 1.0 | 4.0 | 0.00 | 0.18 | 0.00 | 41 | 1008.0 |
| 20260507155259 | 60 | 360 | 1.0 | 6.0 | 0.00 | 0.18 | 0.00 | 40 | 1008.2 |
| 20260507154813 | 59 | 360 | 2.0 | 6.0 | 0.00 | 0.18 | 0.00 | 41 | 1008.2 |
| 20260507154307 | 59 | 360 | 1.0 | 6.0 | 0.00 | 0.18 | 0.00 | 42 | 1008.2 |
| 20260507153806 | 59 | 360 | 1.0 | 6.0 | 0.00 | 0.18 | 0.00 | 43 | 1008.3 |
| 20260507153300 | 59 | 360 | 2.0 | 5.0 | 0.00 | 0.18 | 0.00 | 43 | 1008.3 |
| 20260507152811 | 58 | 360 | 1.0 | 4.0 | 0.00 | 0.18 | 0.00 | 43 | 1008.3 |
| 20260507152322 | 59 | 360 | 1.0 | 5.0 | 0.00 | 0.18 | 0.00 | 44 | 1008.4 |
| 20260507151755 | 58 | 360 | 3.0 | 5.0 | 0.00 | 0.18 | 0.00 | 43 | 1008.4 |
| 20260507151310 | 58 | 360 | 1.0 | 5.0 | 0.00 | 0.18 | 0.00 | 43 | 1008.4 |
| 20260507150752 | 58 | 360 | 2.0 | 8.0 | 0.00 | 0.18 | 0.00 | 43 | 1008.4 |
| 20260507150323 | 58 | 360 | 3.0 | 8.0 | 0.00 | 0.18 | 0.00 | 44 | 1008.4 |
| 20260507145803 | 58 | 360 | 2.0 | 5.0 | 0.00 | 0.18 | 0.00 | 44 | 1008.4 |
| 20260507145316 | 58 | 360 | 1.0 | 7.0 | 0.00 | 0.18 | 0.00 | 46 | 1008.5 |
| 20260507144829 | 58 | 360 | 2.0 | 7.0 | 0.00 | 0.18 | 0.00 | 45 | 1008.5 |
| 20260507144325 | 57 | 360 | 1.0 | 4.0 | 0.00 | 0.18 | 0.00 | 46 | 1008.5 |
| 20260507143818 | 57 | 360 | 1.0 | 4.0 | 0.00 | 0.18 | 0.00 | 45 | 1008.8 |
| 20260507143258 | 57 | 360 | 1.0 | 4.0 | 0.00 | 0.18 | 0.00 | 48 | 1008.8 |
| 20260507142813 | 56 | 360 | 2.0 | 5.0 | 0.00 | 0.18 | 0.00 | 45 | 1008.8 |
| 20260507142307 | 56 | 360 | 2.0 | 6.0 | 0.00 | 0.18 | 0.00 | 45 | 1008.8 |
| 20260507141826 | 56 | 360 | 2.0 | 4.0 | 0.00 | 0.18 | 0.00 | 47 | 1008.8 |
| 20260507141322 | 56 | 360 | 1.0 | 4.0 | 0.00 | 0.18 | 0.00 | 47 | 1008.8 |
| 20260507140808 | 55 | 360 | 1.0 | 5.0 | 0.00 | 0.18 | 0.00 | 48 | 1008.6 |
| 20260507140300 | 55 | 360 | 2.0 | 5.0 | 0.00 | 0.18 | 0.00 | 47 | 1008.6 |
| 20260507135757 | 55 | 360 | 1.0 | 4.0 | 0.00 | 0.18 | 0.00 | 47 | 1008.6 |
| 20260507135255 | 55 | 360 | 2.0 | 5.0 | 0.00 | 0.18 | 0.00 | 47 | 1008.5 |
| 20260507134819 | 55 | 360 | 2.0 | 5.0 | 0.00 | 0.18 | 0.00 | 48 | 1008.5 |
| 20260507134253 | 55 | 360 | 1.0 | 5.0 | 0.00 | 0.18 | 0.00 | 48 | 1008.5 |
| 20260507133814 | 54 | 360 | 1.0 | 7.0 | 0.00 | 0.18 | 0.00 | 50 | 1008.4 |
| 20260507133305 | 54 | 360 | 1.0 | 7.0 | 0.00 | 0.18 | 0.00 | 50 | 1008.4 |
| 20260507132808 | 54 | 360 | 3.0 | 6.0 | 0.00 | 0.18 | 0.00 | 48 | 1008.4 |
| 20260507132307 | 54 | 360 | 2.0 | 6.0 | 0.00 | 0.18 | 0.00 | 49 | 1008.4 |
| 20260507131755 | 53 | 360 | 2.0 | 6.0 | 0.00 | 0.18 | 0.00 | 50 | 1008.4 |
| 20260507131313 | 53 | 360 | 2.0 | 5.0 | 0.00 | 0.18 | 0.00 | 56 | 1008.4 |
| 20260507130756 | 53 | 360 | 0.0 | 2.0 | 0.00 | 0.18 | 0.00 | 58 | 1008.4 |
| 20260507130304 | 52 | 360 | 1.0 | 2.0 | 0.00 | 0.18 | 0.00 | 59 | 1008.4 |
| 20260507125759 | 52 | 360 | 1.0 | 2.0 | 0.00 | 0.18 | 0.00 | 61 | 1008.4 |
| 20260507125259 | 51 | 360 | 1.0 | 2.0 | 0.00 | 0.18 | 0.00 | 61 | 1008.5 |
| 20260507124755 | 51 | 360 | 0.0 | 1.0 | 0.00 | 0.18 | 0.00 | 60 | 1008.5 |
| 20260507124310 | 51 | 360 | 0.0 | 3.0 | 0.00 | 0.18 | 0.00 | 60 | 1008.5 |
| 20260507123808 | 51 | 360 | 1.0 | 4.0 | 0.00 | 0.18 | 0.00 | 60 | 1008.5 |
| 20260507123326 | 51 | 360 | 1.0 | 4.0 | 0.00 | 0.18 | 0.00 | 61 | 1008.5 |
| 20260507122755 | 50 | 360 | 1.0 | 3.0 | 0.00 | 0.18 | 0.00 | 66 | 1008.5 |
| 20260507122308 | 50 | 360 | 1.0 | 3.0 | 0.00 | 0.18 | 0.00 | 66 | 1008.5 |
| 20260507121800 | 50 | 360 | 0.0 | 3.0 | 0.00 | 0.18 | 0.00 | 67 | 1008.5 |
| 20260507121316 | 50 | 263 | 0.0 | 1.0 | 0.00 | 0.18 | 0.00 | 68 | 1008.5 |
| 20260507120807 | 50 | 263 | 0.0 | 2.0 | 0.00 | 0.18 | 0.00 | 68 | 1008.4 |
| 20260507120256 | 49 | 263 | 0.0 | 3.0 | 0.00 | 0.18 | 0.00 | 68 | 1008.4 |
| 20260507115807 | 49 | 360 | 1.0 | 4.0 | 0.00 | 0.18 | 0.00 | 68 | 1008.4 |
| 20260507115302 | 49 | 333 | 1.0 | 6.0 | 0.00 | 0.18 | 0.00 | 72 | 1008.3 |
| 20260507114805 | 49 | 261 | 1.0 | 6.0 | 0.00 | 0.18 | 0.00 | 74 | 1008.3 |
| 20260507114300 | 49 | 251 | 1.0 | 5.0 | 0.00 | 0.18 | 0.00 | 78 | 1008.3 |
| 20260507113814 | 49 | 257 | 1.0 | 3.0 | 0.00 | 0.18 | 0.00 | 79 | 1008.0 |
| 20260507113330 | 49 | 211 | 1.0 | 3.0 | 0.00 | 0.18 | 0.00 | 80 | 1008.0 |
| 20260507112804 | 49 | 349 | 1.0 | 3.0 | 0.00 | 0.18 | 0.00 | 81 | 1008.0 |
| 20260507112257 | 49 | 202 | 0.0 | 4.0 | 0.00 | 0.18 | 0.00 | 81 | 1008.0 |
| 20260507111811 | 49 | 202 | 1.0 | 5.0 | 0.00 | 0.18 | 0.00 | 81 | 1008.0 |
| 20260507111253 | 49 | 221 | 2.0 | 5.0 | 0.00 | 0.18 | 0.00 | 82 | 1008.0 |
| 20260507110827 | 48 | 355 | 0.0 | 2.0 | 0.00 | 0.18 | 0.00 | 83 | 1007.8 |
| 20260507110258 | 48 | 355 | 0.0 | 3.0 | 0.00 | 0.18 | 0.00 | 84 | 1007.8 |
| 20260507105806 | 48 | 325 | 0.0 | 3.0 | 0.00 | 0.18 | 0.00 | 84 | 1007.8 |
| 20260507105257 | 48 | 236 | 0.0 | 3.0 | 0.00 | 0.18 | 0.00 | 84 | 1007.5 |
| 20260507104814 | 48 | 217 | 0.0 | 0.0 | 0.00 | 0.18 | 0.00 | 84 | 1007.5 |
| 20260507104312 | 48 | 217 | 0.0 | 2.0 | 0.00 | 0.18 | 0.00 | 84 | 1007.5 |
| 20260507103814 | 48 | 217 | 0.0 | 2.0 | 0.00 | 0.18 | 0.00 | 84 | 1007.4 |
| 20260507103306 | 48 | 262 | 1.0 | 2.0 | 0.00 | 0.18 | 0.00 | 85 | 1007.4 |
| 20260507102825 | 48 | 344 | 0.0 | 1.0 | 0.00 | 0.18 | 0.00 | 85 | 1007.4 |
| 20260507102327 | 48 | 344 | 0.0 | 1.0 | 0.00 | 0.18 | 0.00 | 85 | 1007.2 |
| 20260507101759 | 48 | 344 | 0.0 | 1.0 | 0.00 | 0.18 | 0.00 | 85 | 1007.2 |
| 20260507101310 | 48 | 344 | 0.0 | 1.0 | 0.00 | 0.18 | 0.00 | 85 | 1007.2 |
| 20260507100804 | 48 | 344 | 0.0 | 1.0 | 0.00 | 0.18 | 0.00 | 84 | 1006.9 |
| 20260507100258 | 48 | 344 | 0.0 | 2.0 | 0.00 | 0.18 | 0.00 | 84 | 1006.9 |
| 20260507095759 | 48 | 344 | 0.0 | 2.0 | 0.00 | 0.18 | 0.00 | 84 | 1006.9 |
| 20260507095256 | 48 | 344 | 0.0 | 1.0 | 0.00 | 0.18 | 0.00 | 85 | 1007.1 |
| 20260507094830 | 49 | 344 | 0.0 | 1.0 | 0.00 | 0.18 | 0.00 | 84 | 1007.1 |
| 20260507094308 | 49 | 32 | 0.0 | 1.0 | 0.00 | 0.18 | 0.00 | 84 | 1007.1 |
| 20260507093804 | 49 | 32 | 0.0 | 2.0 | 0.00 | 0.18 | 0.00 | 84 | 1007.1 |
| 20260507093301 | 49 | 32 | 1.0 | 2.0 | 0.00 | 0.18 | 0.00 | 85 | 1007.1 |
| 20260507092756 | 49 | 32 | 1.0 | 2.0 | 0.00 | 0.18 | 0.00 | 85 | 1007.1 |
| 20260507092309 | 49 | 32 | 0.0 | 3.0 | 0.00 | 0.18 | 0.00 | 86 | 1007.4 |
| 20260507091804 | 49 | 32 | 0.0 | 3.0 | 0.00 | 0.18 | 0.00 | 86 | 1007.4 |
| 20260507091301 | 49 | 173 | 1.0 | 3.0 | 0.00 | 0.18 | 0.00 | 87 | 1007.4 |
| 20260507090816 | 49 | 173 | 0.0 | 1.0 | 0.00 | 0.18 | 0.00 | 87 | 1007.5 |
| 20260507090303 | 49 | 173 | 0.0 | 2.0 | 0.00 | 0.18 | 0.00 | 87 | 1007.5 |
| 20260507085805 | 49 | 263 | 0.0 | 1.0 | 0.00 | 0.18 | 0.00 | 87 | 1007.5 |
| 20260507085318 | 49 | 264 | 0.0 | 2.0 | 0.00 | 0.18 | 0.00 | 87 | 1007.4 |
| 20260507084823 | 49 | 264 | 0.0 | 2.0 | 0.00 | 0.18 | 0.00 | 87 | 1007.4 |
| 20260507084258 | 49 | 263 | 0.0 | 2.0 | 0.00 | 0.18 | 0.00 | 87 | 1007.4 |
| 20260507083756 | 49 | 234 | 0.0 | 0.0 | 0.00 | 0.18 | 0.00 | 87 | 1007.7 |
| 20260507083313 | 49 | 233 | 0.0 | 0.0 | 0.00 | 0.18 | 0.00 | 87 | 1007.7 |
| 20260507082804 | 49 | 234 | 0.0 | 1.0 | 0.00 | 0.18 | 0.00 | 87 | 1007.7 |
| 20260507082257 | 50 | 233 | 0.0 | 1.0 | 0.00 | 0.18 | 0.00 | 87 | 1007.7 |
| 20260507081755 | 50 | 233 | 0.0 | 1.0 | 0.00 | 0.18 | 0.00 | 87 | 1007.7 |
| 20260507081333 | 50 | 234 | 0.0 | 1.0 | 0.00 | 0.18 | 0.00 | 88 | 1007.7 |
| 20260507080824 | 50 | 233 | 0.0 | 1.0 | 0.00 | 0.18 | 0.00 | 88 | 1007.8 |
| 20260507080314 | 50 | 234 | 0.0 | 3.0 | 0.00 | 0.18 | 0.00 | 88 | 1007.8 |
| 20260507075811 | 50 | 233 | 1.0 | 3.0 | 0.00 | 0.18 | 0.00 | 88 | 1007.8 |
| 20260507075325 | 50 | 329 | 0.0 | 0.0 | 0.00 | 0.18 | 0.00 | 88 | 1007.3 |
| 20260507074821 | 50 | 329 | 0.0 | 0.0 | 0.00 | 0.18 | 0.00 | 88 | 1007.3 |
| 20260507074314 | 50 | 329 | 0.0 | 2.0 | 0.00 | 0.18 | 0.00 | 88 | 1007.3 |
| 20260507073827 | 50 | 329 | 0.0 | 2.0 | 0.00 | 0.18 | 0.00 | 88 | 1006.8 |
| 20260507073304 | 50 | 329 | 0.0 | 1.0 | 0.00 | 0.18 | 0.00 | 88 | 1006.8 |
| 20260507072757 | 50 | 329 | 0.0 | 1.0 | 0.00 | 0.18 | 0.00 | 88 | 1006.8 |
| 20260507072308 | 50 | 329 | 0.0 | 2.0 | 0.00 | 0.18 | 0.00 | 88 | 1006.9 |
| 20260507071804 | 50 | 329 | 0.0 | 2.0 | 0.00 | 0.18 | 0.00 | 88 | 1006.9 |
| 20260507071301 | 50 | 329 | 0.0 | 1.0 | 0.00 | 0.18 | 0.00 | 89 | 1006.9 |
| 20260507070757 | 50 | 329 | 0.0 | 0.0 | 0.00 | 0.18 | 0.00 | 89 | 1007.1 |
| 20260507070307 | 50 | 329 | 0.0 | 0.0 | 0.00 | 0.18 | 0.00 | 89 | 1007.1 |
| 20260507065829 | 50 | 329 | 0.0 | 0.0 | 0.00 | 0.18 | 0.00 | 89 | 1007.1 |
| 20260507065321 | 50 | 329 | 0.0 | 0.0 | 0.00 | 0.18 | 0.00 | 90 | 1007.0 |
| 20260507064753 | 50 | 329 | 0.0 | 1.0 | 0.00 | 0.18 | 0.00 | 90 | 1007.0 |
| 20260507064308 | 50 | 329 | 0.0 | 1.0 | 0.00 | 0.18 | 0.00 | 90 | 1007.0 |
| 20260507063804 | 50 | 329 | 0.0 | 1.0 | 0.00 | 0.18 | 0.00 | 90 | 1006.8 |
| 20260507063312 | 50 | 329 | 0.0 | 2.0 | 0.00 | 0.18 | 0.00 | 91 | 1006.8 |
| 20260507062806 | 50 | 329 | 0.0 | 2.0 | 0.00 | 0.18 | 0.00 | 91 | 1006.8 |
| 20260507062306 | 50 | 338 | 0.0 | 1.0 | 0.00 | 0.18 | 0.00 | 91 | 1006.7 |
| 20260507061759 | 50 | 338 | 0.0 | 1.0 | 0.00 | 0.18 | 0.00 | 91 | 1006.7 |
| 20260507061313 | 50 | 338 | 0.0 | 1.0 | 0.00 | 0.18 | 0.00 | 91 | 1006.7 |
| 20260507060802 | 50 | 338 | 0.0 | 1.0 | 0.00 | 0.18 | 0.00 | 91 | 1006.8 |
| 20260507060310 | 50 | 338 | 0.0 | 1.0 | 0.00 | 0.18 | 0.00 | 91 | 1006.8 |
| 20260507055801 | 51 | 338 | 0.0 | 1.0 | 0.00 | 0.18 | 0.00 | 92 | 1006.8 |
| 20260507055300 | 51 | 338 | 0.0 | 1.0 | 0.00 | 0.18 | 0.00 | 92 | 1006.8 |
| 20260507054756 | 51 | 338 | 0.0 | 1.0 | 0.00 | 0.18 | 0.00 | 92 | 1006.8 |
| 20260507054308 | 51 | 338 | 0.0 | 0.0 | 0.00 | 0.18 | 0.00 | 92 | 1006.8 |
| 20260507053824 | 51 | 338 | 0.0 | 0.0 | 0.00 | 0.18 | 0.00 | 92 | 1007.4 |
| 20260507053259 | 51 | 338 | 0.0 | 0.0 | 0.00 | 0.18 | 0.00 | 92 | 1007.4 |
| 20260507052755 | 51 | 338 | 0.0 | 0.0 | 0.00 | 0.18 | 0.00 | 92 | 1007.4 |
| 20260507052306 | 51 | 338 | 0.0 | 0.0 | 0.00 | 0.18 | 0.00 | 92 | 1007.4 |
| 20260507051759 | 51 | 338 | 0.0 | 0.0 | 0.00 | 0.18 | 0.00 | 92 | 1007.4 |
| 20260507051257 | 51 | 338 | 0.0 | 0.0 | 0.00 | 0.18 | 0.00 | 92 | 1007.4 |
| 20260507050814 | 51 | 338 | 0.0 | 0.0 | 0.00 | 0.18 | 0.00 | 92 | 1007.8 |
| 20260507050323 | 51 | 338 | 0.0 | 0.0 | 0.00 | 0.18 | 0.00 | 92 | 1007.8 |
| 20260507045758 | 51 | 338 | 0.0 | 1.0 | 0.00 | 0.18 | 0.00 | 92 | 1007.8 |
| 20260507045252 | 51 | 338 | 0.0 | 1.0 | 0.00 | 0.18 | 0.00 | 91 | 1007.6 |
| 20260507044755 | 51 | 339 | 0.0 | 0.0 | 0.00 | 0.18 | 0.00 | 91 | 1007.6 |
| 20260507044255 | 51 | 338 | 0.0 | 0.0 | 0.00 | 0.18 | 0.00 | 91 | 1007.6 |
| 20260507043757 | 51 | 338 | 0.0 | 0.0 | 0.00 | 0.18 | 0.00 | 91 | 1007.3 |
| 20260507043314 | 51 | 339 | 0.0 | 0.0 | 0.00 | 0.18 | 0.00 | 91 | 1007.3 |
| 20260507042813 | 51 | 339 | 0.0 | 1.0 | 0.00 | 0.18 | 0.00 | 91 | 1007.3 |
| 20260507042254 | 51 | 339 | 0.0 | 1.0 | 0.00 | 0.18 | 0.00 | 91 | 1007.1 |
| 20260507041802 | 51 | 339 | 0.0 | 0.0 | 0.00 | 0.18 | 0.00 | 92 | 1007.1 |
| 20260507041259 | 51 | 339 | 0.0 | 0.0 | 0.00 | 0.18 | 0.00 | 91 | 1007.1 |
| 20260507040813 | 51 | 339 | 0.0 | 0.0 | 0.00 | 0.18 | 0.00 | 91 | 1007.0 |
| 20260507040301 | 52 | 339 | 0.0 | 0.0 | 0.00 | 0.18 | 0.00 | 91 | 1007.0 |